Time;durP1;ratioP1;P1;durP2;ratioP2;P2;SDS_P1;SDS_P2;PMS_P1;PMS_P2;Temp;Humidity;BMP_temperature;BMP_pressure;BME280_temperature;BME280_humidity;BME280_pressure;Samples;Min_cycle;Max_cycle;Signal;HPM_P1;HPM_P2
2021/05/07 00:00:14;;;;;;;24.77;13.40;;;;;;;3.93;79.63;99102.59;1815862;79;21198;-76
2021/05/07 00:02:41;;;;;;;29.65;15.48;;;;;;;3.89;79.35;99100.17;1815952;78;21517;-75
2021/05/07 00:05:11;;;;;;;32.58;16.23;;;;;;;3.85;79.20;99102.38;1815875;79;20923;-76
2021/05/07 00:07:39;;;;;;;34.15;14.33;;;;;;;3.80;79.25;99100.52;1815868;79;21117;-75
2021/05/07 00:10:08;;;;;;;25.82;14.18;;;;;;;3.73;79.26;99093.23;1815817;79;21141;-75
2021/05/07 00:12:36;;;;;;;36.40;16.85;;;;;;;3.69;79.37;99094.88;1815763;77;21183;-75
2021/05/07 00:15:05;;;;;;;28.05;15.50;;;;;;;3.64;79.31;99097.62;1815836;79;20924;-75
2021/05/07 00:17:33;;;;;;;35.40;18.20;;;;;;;3.60;79.39;99096.56;1815845;79;21051;-75
2021/05/07 00:20:00;;;;;;;34.08;17.12;;;;;;;3.54;79.51;99096.33;1815945;79;21505;-75
2021/05/07 00:22:28;;;;;;;39.35;18.20;;;;;;;3.49;79.62;99097.17;1815848;79;21114;-75
2021/05/07 00:24:57;;;;;;;36.30;17.05;;;;;;;3.46;80.02;99099.12;1813540;79;21370;-75
2021/05/07 00:27:25;;;;;;;37.85;17.37;;;;;;;3.45;80.08;99096.14;1815838;78;20948;-75
2021/05/07 00:29:53;;;;;;;30.90;15.38;;;;;;;3.43;80.24;99093.44;1815898;79;20948;-75
2021/05/07 00:32:21;;;;;;;26.85;14.30;;;;;;;3.46;80.47;99095.59;1815851;78;21057;-75
2021/05/07 00:34:50;;;;;;;30.30;15.13;;;;;;;3.46;80.43;99091.52;1815905;79;21057;-76
2021/05/07 00:37:17;;;;;;;26.75;13.53;;;;;;;3.48;80.60;99095.55;1815843;79;22191;-75
2021/05/07 00:39:46;;;;;;;29.87;14.85;;;;;;;3.48;80.71;99090.12;1815826;79;20969;-75
2021/05/07 00:42:13;;;;;;;29.95;14.87;;;;;;;3.50;80.85;99089.84;1815865;79;21032;-75
2021/05/07 00:44:42;;;;;;;30.92;14.28;;;;;;;3.51;80.89;99089.56;1815860;79;21070;-75
2021/05/07 00:47:11;;;;;;;29.07;14.05;;;;;;;3.55;80.96;99085.74;1815900;79;21041;-77
2021/05/07 00:49:39;;;;;;;27.95;13.50;;;;;;;3.58;81.03;99083.82;1815938;79;22290;-77
2021/05/07 00:52:09;;;;;;;27.95;13.38;;;;;;;3.60;81.17;99084.35;1815690;79;21137;-77
2021/05/07 00:54:37;;;;;;;26.05;13.95;;;;;;;3.65;81.33;99076.17;1816015;77;21563;-77
2021/05/07 00:57:06;;;;;;;26.23;12.55;;;;;;;3.70;81.34;99081.58;1815865;79;21119;-77
2021/05/07 00:59:34;;;;;;;28.83;13.20;;;;;;;3.74;81.23;99083.99;1787090;79;21054;-76
2021/05/07 01:02:02;;;;;;;28.45;12.45;;;;;;;3.80;81.21;99076.63;1815842;79;21193;-77
2021/05/07 01:04:30;;;;;;;24.30;12.53;;;;;;;3.85;81.29;99074.69;1815765;78;21058;-75
2021/05/07 01:06:57;;;;;;;24.25;11.48;;;;;;;3.91;81.38;99075.45;1815810;79;21071;-76
2021/05/07 01:09:26;;;;;;;21.70;10.53;;;;;;;3.90;81.54;99062.97;1815801;79;21111;-76
2021/05/07 01:11:54;;;;;;;18.00;9.03;;;;;;;3.96;81.47;99064.01;1825383;77;21064;-76
2021/05/07 01:14:22;;;;;;;23.65;9.70;;;;;;;4.04;81.55;99060.42;1774736;80;21211;-77
2021/05/07 01:16:50;;;;;;;15.80;8.90;;;;;;;4.10;81.61;99061.97;1793044;80;21548;-76
2021/05/07 01:19:18;;;;;;;18.37;8.15;;;;;;;4.16;81.69;99062.19;1806716;79;20926;-76
2021/05/07 01:21:46;;;;;;;17.73;8.15;;;;;;;4.22;81.81;99059.14;1774880;80;21921;-75
2021/05/07 01:24:14;;;;;;;13.95;7.58;;;;;;;4.30;81.88;99065.86;1793214;80;21045;-75
2021/05/07 01:26:42;;;;;;;16.05;7.45;;;;;;;4.35;81.73;99059.02;1780091;79;22169;-75
2021/05/07 01:29:12;;;;;;;17.82;7.25;;;;;;;4.40;81.41;99066.31;1774812;80;21474;-75
2021/05/07 01:31:43;;;;;;;21.87;6.67;;;;;;;4.43;81.49;99063.84;1793176;80;21094;-76
2021/05/07 01:34:12;;;;;;;16.97;6.95;;;;;;;4.47;81.50;99066.24;1806830;79;21509;-76
2021/05/07 01:36:40;;;;;;;15.28;6.60;;;;;;;4.50;81.75;99062.95;1774975;80;21473;-76
2021/05/07 01:39:08;;;;;;;18.27;7.40;;;;;;;4.55;81.88;99061.54;1793196;80;21370;-76
2021/05/07 01:41:36;;;;;;;20.35;7.78;;;;;;;4.62;82.03;99072.08;1806615;79;21152;-76
2021/05/07 01:44:06;;;;;;;14.28;7.00;;;;;;;4.65;81.91;99070.92;1774871;80;21065;-76
2021/05/07 01:46:33;;;;;;;17.32;7.03;;;;;;;4.65;81.64;99066.84;1766235;80;20969;-75
2021/05/07 01:49:03;;;;;;;13.48;6.72;;;;;;;4.69;81.88;99070.34;1774930;80;21053;-76
2021/05/07 01:51:31;;;;;;;15.13;7.10;;;;;;;4.70;81.76;99067.88;1806726;79;21373;-75
2021/05/07 01:54:00;;;;;;;15.05;6.65;;;;;;;4.74;81.68;99071.64;1774841;80;21065;-76
2021/05/07 01:56:27;;;;;;;16.00;6.37;;;;;;;4.77;81.87;99077.32;1793148;80;20962;-75
2021/05/07 01:58:56;;;;;;;16.60;7.37;;;;;;;4.89;81.89;99072.28;1774909;80;21497;-75
2021/05/07 02:01:23;;;;;;;20.08;6.72;;;;;;;4.89;81.89;99072.28;1806710;79;20938;-74
2021/05/07 02:03:53;;;;;;;14.93;6.67;;;;;;;4.95;82.20;99074.40;1774868;80;23656;-74
2021/05/07 02:06:22;;;;;;;13.10;6.30;;;;;;;5.00;82.33;99070.81;1791504;80;20938;-74
2021/05/07 02:08:51;;;;;;;16.00;6.00;;;;;;;5.06;82.50;99067.73;1774927;80;20934;-74
2021/05/07 02:11:19;;;;;;;9.38;5.72;;;;;;;5.06;82.50;99067.73;1805299;78;21144;-73
2021/05/07 02:13:48;;;;;;;13.32;5.83;;;;;;;5.10;82.40;99056.53;1746877;82;21133;-74
2021/05/07 02:16:16;;;;;;;9.83;5.60;;;;;;;5.13;82.33;99056.50;1756257;81;21218;-75
2021/05/07 02:18:44;;;;;;;9.25;4.80;;;;;;;5.16;81.63;99054.56;1761392;81;21546;-77
2021/05/07 02:21:15;;;;;;;14.00;5.05;;;;;;;5.20;80.80;99063.17;1761477;81;21165;-74
2021/05/07 02:23:43;;;;;;;9.65;4.45;;;;;;;5.23;79.38;99056.34;1761347;81;21096;-74
2021/05/07 02:26:11;;;;;;;9.30;4.40;;;;;;;5.27;79.37;99055.47;1761438;81;20944;-74
2021/05/07 02:28:43;;;;;;;;;;;;;;;5.32;78.51;99060.03;1763482;81;21212;-74
2021/05/07 02:31:11;;;;;;;13.83;4.72;;;;;;;5.36;78.26;99058.89;1761359;81;20130;-74
2021/05/07 02:33:39;;;;;;;11.30;4.95;;;;;;;5.39;77.34;99059.12;1761451;81;21015;-74
2021/05/07 02:36:09;;;;;;;9.83;4.85;;;;;;;5.41;77.07;99056.10;1761360;81;21157;-74
2021/05/07 02:38:38;;;;;;;7.70;4.15;;;;;;;5.40;76.98;99049.84;1761497;81;21486;-74
2021/05/07 02:41:06;;;;;;;7.65;4.40;;;;;;;5.37;76.55;99057.24;1761441;81;21577;-74
2021/05/07 02:43:34;;;;;;;9.63;4.80;;;;;;;5.33;76.97;99055.39;1761362;81;21487;-74
2021/05/07 02:46:02;;;;;;;10.78;5.20;;;;;;;5.29;77.54;99058.70;1761434;81;20924;-74
2021/05/07 02:48:32;;;;;;;13.10;5.00;;;;;;;5.24;77.06;99067.48;1761338;81;21082;-74
2021/05/07 02:51:01;;;;;;;12.85;4.72;;;;;;;5.20;76.47;99068.62;1761407;81;21660;-74
2021/05/07 02:53:29;;;;;;;12.95;5.20;;;;;;;5.24;75.34;99068.30;1761385;81;21384;-74
2021/05/07 02:55:57;;;;;;;11.95;4.62;;;;;;;5.29;75.77;99075.59;1761335;81;21592;-74
2021/05/07 02:58:24;;;;;;;16.57;5.22;;;;;;;5.29;75.77;99075.59;1761399;81;20939;-73
2021/05/07 03:00:52;;;;;;;12.20;5.70;;;;;;;5.30;75.97;99074.48;1761385;81;21062;-73
2021/05/07 03:03:20;;;;;;;11.18;5.15;;;;;;;5.34;75.83;99082.88;1761369;81;21113;-75
2021/05/07 03:05:48;;;;;;;14.80;5.87;;;;;;;5.36;75.41;99086.92;1761398;81;21361;-75
2021/05/07 03:08:23;;;;;;;13.70;5.12;;;;;;;5.42;74.97;99084.94;1761336;81;21165;-78
2021/05/07 03:10:51;;;;;;;7.55;4.22;;;;;;;5.53;74.58;99089.15;1761403;81;20952;-77
2021/05/07 03:13:18;;;;;;;12.68;4.97;;;;;;;5.53;74.58;99089.15;1758527;81;21141;-77
2021/05/07 03:15:48;;;;;;;8.55;4.90;;;;;;;5.58;73.07;99087.16;1758404;81;20999;-77
2021/05/07 03:18:18;;;;;;;13.45;5.00;;;;;;;5.67;70.72;99086.51;1815913;79;22110;-77
2021/05/07 03:20:48;;;;;;;10.60;4.87;;;;;;;5.76;70.33;99082.02;1816142;79;21118;-77
2021/05/07 03:23:15;;;;;;;11.53;5.62;;;;;;;5.81;70.60;99082.72;1815963;79;22115;-74
2021/05/07 03:25:44;;;;;;;9.53;5.22;;;;;;;5.81;70.90;99072.38;1815912;79;21046;-74
2021/05/07 03:28:12;;;;;;;14.70;4.78;;;;;;;5.84;71.15;99077.23;1815883;79;21049;-74
2021/05/07 03:30:40;;;;;;;18.32;5.60;;;;;;;5.81;71.02;99071.83;1815921;79;21486;-75
2021/05/07 03:33:07;;;;;;;14.73;7.67;;;;;;;5.80;70.70;99077.02;1815888;79;20971;-77
2021/05/07 03:35:37;;;;;;;12.23;7.22;;;;;;;5.78;70.50;99080.59;1815902;79;21128;-78
2021/05/07 03:38:05;;;;;;;15.80;7.20;;;;;;;5.78;70.28;99081.95;1815978;78;21079;-75
2021/05/07 03:40:33;;;;;;;13.30;6.40;;;;;;;5.80;70.39;99072.93;1816020;79;20951;-75
2021/05/07 03:43:02;;;;;;;22.27;7.00;;;;;;;5.83;70.18;99067.44;1815903;79;21211;-75
2021/05/07 03:45:30;;;;;;;11.57;5.33;;;;;;;5.87;70.48;99069.28;1815816;79;21074;-75
2021/05/07 03:47:59;;;;;;;14.78;5.72;;;;;;;5.90;69.83;99069.27;1815883;79;21089;-75
2021/05/07 03:50:28;;;;;;;9.15;5.00;;;;;;;5.95;69.79;99076.81;1815839;79;20983;-75
2021/05/07 03:52:56;;;;;;;8.70;4.37;;;;;;;6.00;69.22;99066.39;1815935;79;21165;-75
2021/05/07 03:55:23;;;;;;;11.20;4.95;;;;;;;6.11;68.77;99077.94;1815891;79;21263;-75
2021/05/07 03:57:51;;;;;;;8.53;4.40;;;;;;;6.19;68.35;99078.06;1815840;79;20936;-75
2021/05/07 04:00:22;;;;;;;15.35;4.33;;;;;;;6.27;67.98;99069.76;1815892;79;21546;-74
2021/05/07 04:02:49;;;;;;;13.38;4.72;;;;;;;6.40;67.90;99079.86;1815989;79;21546;-75
2021/05/07 04:05:17;;;;;;;8.85;4.00;;;;;;;6.49;68.08;99075.89;1815970;79;21549;-76
2021/05/07 04:07:50;;;;;;;10.68;4.20;;;;;;;6.65;67.48;99083.25;1815730;79;21121;-76
2021/05/07 04:10:18;;;;;;;9.00;4.45;;;;;;;6.83;67.02;99083.72;1815621;78;21185;-72
2021/05/07 04:15:18;;;;;;;19.73;5.03;;;;;;;7.10;66.45;99078.25;1819043;78;21482;-76
2021/05/07 04:17:46;;;;;;;11.48;4.42;;;;;;;7.17;66.39;99078.65;1819072;78;21142;-76
2021/05/07 04:20:14;;;;;;;10.78;4.40;;;;;;;7.21;66.33;99074.20;1777624;80;21387;-72
2021/05/07 04:22:42;;;;;;;12.20;3.33;;;;;;;7.30;66.36;99078.38;1745396;82;21135;-76
2021/05/07 04:25:11;;;;;;;11.93;3.37;;;;;;;7.46;62.46;99079.67;1756241;81;20949;-75
2021/05/07 04:27:39;;;;;;;6.62;3.65;;;;;;;7.68;61.04;99080.81;1777039;80;21537;-73
2021/05/07 04:30:08;;;;;;;8.50;3.15;;;;;;;7.89;59.90;99078.67;1777079;80;21152;-72
2021/05/07 04:32:38;;;;;;;11.25;3.60;;;;;;;8.09;59.97;99077.36;1777573;80;21244;-72
2021/05/07 04:35:08;;;;;;;12.65;3.75;;;;;;;8.26;59.53;99073.38;1777545;80;21018;-75
2021/05/07 04:37:36;;;;;;;9.73;4.25;;;;;;;8.45;59.53;99073.21;1777308;80;21045;-70
2021/05/07 04:40:05;;;;;;;16.27;9.85;;;;;;;8.60;60.03;99067.34;1772124;80;21064;-71
2021/05/07 04:42:33;;;;;;;29.12;16.40;;;;;;;8.72;59.72;99070.02;1755538;81;21608;-71
2021/05/07 04:45:00;;;;;;;19.75;12.82;;;;;;;8.86;57.77;99068.00;1757774;80;22356;-82
2021/05/07 04:47:28;;;;;;;11.30;6.15;;;;;;;9.05;57.13;99067.19;1756032;80;21557;-80
2021/05/07 04:49:56;;;;;;;6.70;3.77;;;;;;;9.25;54.75;99062.47;1760544;80;20974;-74
2021/05/07 04:52:24;;;;;;;7.90;4.37;;;;;;;9.47;52.77;99067.59;1756275;80;21089;-83
2021/05/07 04:54:52;;;;;;;7.53;3.50;;;;;;;9.69;50.78;99059.80;1759821;80;21663;-72
2021/05/07 04:57:19;;;;;;;13.50;8.50;;;;;;;9.92;49.77;99057.13;1775276;80;22337;-74
2021/05/07 04:59:47;;;;;;;15.85;6.37;;;;;;;10.14;48.74;99053.41;1756063;81;20985;-74
2021/05/07 05:02:14;;;;;;;8.45;3.12;;;;;;;10.34;48.29;99050.02;1730445;81;21135;-75
2021/05/07 05:04:43;;;;;;;12.00;3.85;;;;;;;10.52;47.33;99046.64;1756159;81;21035;-80
2021/05/07 05:07:11;;;;;;;7.17;4.42;;;;;;;10.69;47.26;99040.29;1763258;80;21006;-75
2021/05/07 05:09:39;;;;;;;15.53;8.98;;;;;;;10.83;46.81;99040.31;1763108;80;21217;-70
2021/05/07 05:12:08;;;;;;;17.82;9.95;;;;;;;11.00;45.21;99040.78;1757462;80;21218;-70
2021/05/07 05:14:36;;;;;;;7.22;3.12;;;;;;;11.14;45.66;99045.47;1780398;79;21002;-73
2021/05/07 05:17:04;;;;;;;7.12;2.58;;;;;;;11.29;42.75;99036.42;1777889;80;20946;-67
2021/05/07 05:19:32;;;;;;;10.72;2.90;;;;;;;11.42;42.75;99040.87;1764514;80;21049;-70
2021/05/07 05:22:00;;;;;;;8.63;1.98;;;;;;;11.53;43.91;99039.34;1769011;80;21394;-71
2021/05/07 05:24:27;;;;;;;9.03;2.30;;;;;;;11.65;43.05;99028.39;1763589;80;21535;-74
2021/05/07 05:26:56;;;;;;;11.75;2.72;;;;;;;11.78;43.31;99035.60;1762471;80;21635;-74
2021/05/07 05:29:27;;;;;;;6.35;2.50;;;;;;;11.96;44.23;99036.27;1761686;80;21113;-74
2021/05/07 05:31:55;;;;;;;12.60;4.05;;;;;;;12.18;42.93;99035.06;1765419;80;21115;-75
2021/05/07 05:34:23;;;;;;;13.50;7.60;;;;;;;12.39;42.70;99031.70;1779314;80;21208;-77
2021/05/07 05:36:51;;;;;;;13.18;8.03;;;;;;;12.56;41.31;99032.89;1776079;80;21010;-75
2021/05/07 05:39:18;;;;;;;14.33;6.33;;;;;;;12.69;41.64;99034.29;1775928;80;21120;-72
2021/05/07 05:41:46;;;;;;;7.03;4.30;;;;;;;12.79;41.26;99034.63;1747526;81;21140;-72
2021/05/07 05:44:14;;;;;;;14.13;4.53;;;;;;;12.89;40.51;99037.50;1775643;80;21117;-74
2021/05/07 05:46:42;;;;;;;18.90;4.60;;;;;;;12.95;41.10;99038.89;1776100;80;21348;-79
2021/05/07 05:49:10;;;;;;;13.32;3.37;;;;;;;13.02;41.65;99043.83;1776207;80;20967;-76
2021/05/07 05:51:38;;;;;;;11.65;2.70;;;;;;;13.07;41.09;99047.16;1776384;80;20987;-76
2021/05/07 05:54:07;;;;;;;8.68;3.75;;;;;;;13.13;41.13;99047.73;1772013;81;21553;-76
2021/05/07 05:56:34;;;;;;;7.72;2.40;;;;;;;13.19;40.63;99048.57;1772099;81;20947;-81
2021/05/07 05:59:03;;;;;;;6.20;2.55;;;;;;;13.26;40.17;99047.19;1772058;81;21364;-78
2021/05/07 06:01:31;;;;;;;7.42;2.70;;;;;;;13.35;39.96;99045.09;1771981;81;20931;-77
2021/05/07 06:03:59;;;;;;;5.55;1.85;;;;;;;13.44;38.36;99046.58;1772018;81;21133;-77
2021/05/07 06:06:26;;;;;;;7.15;2.22;;;;;;;13.56;38.59;99045.75;1772063;81;21176;-77
2021/05/07 06:08:54;;;;;;;6.30;2.20;;;;;;;13.72;39.02;99045.84;1772170;80;21549;-78
2021/05/07 06:11:22;;;;;;;10.38;2.02;;;;;;;13.93;38.11;99050.58;1770612;80;21454;-76
2021/05/07 06:13:50;;;;;;;7.20;2.40;;;;;;;14.06;38.20;99043.06;1771747;80;21029;-73
2021/05/07 06:16:18;;;;;;;5.95;1.77;;;;;;;14.18;39.23;99046.58;1837633;78;21101;-73
2021/05/07 06:18:46;;;;;;;7.53;2.00;;;;;;;14.34;36.66;99045.25;1764428;80;21192;-73
2021/05/07 06:21:14;;;;;;;4.30;1.72;;;;;;;14.42;37.31;99042.94;1836827;78;21162;-72
2021/05/07 06:23:42;;;;;;;6.20;1.80;;;;;;;14.52;36.67;99040.21;1781852;80;21426;-75
2021/05/07 06:26:10;;;;;;;3.58;1.60;;;;;;;14.61;37.06;99043.61;1837682;78;21129;-73
2021/05/07 06:28:37;;;;;;;3.90;1.52;;;;;;;14.65;36.59;99038.98;1781888;80;21148;-73
2021/05/07 06:31:05;;;;;;;11.12;1.60;;;;;;;14.68;36.93;99038.27;1837674;78;21085;-73
2021/05/07 06:33:32;;;;;;;3.50;1.27;;;;;;;14.76;36.32;99039.27;1837659;78;21108;-77
2021/05/07 06:36:00;;;;;;;2.30;1.15;;;;;;;14.84;36.71;99040.47;1781871;80;21195;-78
2021/05/07 06:38:29;;;;;;;7.85;1.80;;;;;;;14.97;36.28;99031.52;1837378;77;21108;-80
2021/05/07 06:40:56;;;;;;;7.70;1.50;;;;;;;15.15;37.72;99034.11;1813399;77;21133;-77
2021/05/07 06:43:24;;;;;;;6.12;1.55;;;;;;;15.34;36.78;99035.33;1849349;77;21481;-75
2021/05/07 06:45:52;;;;;;;3.87;1.30;;;;;;;15.38;36.07;99040.37;1824576;77;21449;-77
2021/05/07 06:48:20;;;;;;;6.20;2.05;;;;;;;15.32;35.08;99039.04;1804159;77;21136;-75
2021/05/07 06:50:48;;;;;;;8.18;1.72;;;;;;;15.26;36.31;99048.77;1781477;79;21168;-76
2021/05/07 06:53:16;;;;;;;3.08;1.45;;;;;;;15.20;35.66;99033.03;1821437;77;21020;-77
2021/05/07 06:55:44;;;;;;;8.20;2.90;;;;;;;15.08;36.32;99028.98;1849154;77;21180;-74
2021/05/07 06:58:14;;;;;;;13.28;2.85;;;;;;;14.97;36.46;99031.52;1846077;77;21060;-80
2021/05/07 07:00:43;;;;;;;11.40;2.25;;;;;;;14.89;35.80;99035.26;1819144;77;22097;-77
2021/05/07 07:03:10;;;;;;;9.50;1.98;;;;;;;14.82;35.92;99040.60;1822319;76;21499;-79
2021/05/07 07:05:38;;;;;;;9.95;3.35;;;;;;;14.73;36.18;99044.12;1815880;79;21100;-75
2021/05/07 07:08:07;;;;;;;14.70;2.42;;;;;;;14.64;35.89;99031.86;1821346;77;20994;-76
2021/05/07 07:10:36;;;;;;;8.45;2.22;;;;;;;14.55;36.66;99039.50;1825846;77;21060;-76
2021/05/07 07:13:04;;;;;;;6.15;1.65;;;;;;;14.47;37.11;99032.98;1819186;77;21435;-76
2021/05/07 07:15:33;;;;;;;7.58;2.62;;;;;;;14.43;36.94;99042.36;1805479;79;20943;-75
2021/05/07 07:18:01;;;;;;;10.30;2.85;;;;;;;14.39;36.41;99049.72;1815927;78;20930;-74
2021/05/07 07:20:30;;;;;;;6.35;1.90;;;;;;;14.35;36.89;99029.48;1815924;77;21107;-73
2021/05/07 07:22:59;;;;;;;6.97;2.60;;;;;;;14.33;36.74;99029.84;1849342;77;21100;-76
2021/05/07 07:25:27;;;;;;;5.67;2.00;;;;;;;14.31;37.10;99033.53;1830799;77;22260;-72
2021/05/07 07:27:55;;;;;;;7.53;2.47;;;;;;;14.31;37.46;99026.63;1820536;77;21901;-74
2021/05/07 07:30:23;;;;;;;5.05;2.75;;;;;;;14.32;37.47;99022.71;1821528;77;21081;-74
2021/05/07 07:32:50;;;;;;;8.40;2.87;;;;;;;14.35;37.78;99023.38;1820157;77;21193;-74
2021/05/07 07:35:19;;;;;;;7.62;1.90;;;;;;;14.38;37.55;99014.97;1820640;77;21153;-72
2021/05/07 07:37:47;;;;;;;9.53;2.90;;;;;;;14.40;37.11;99022.33;1814415;79;21354;-74
2021/05/07 07:40:15;;;;;;;5.03;1.62;;;;;;;14.40;37.53;99016.22;1814237;78;21157;-72
2021/05/07 07:42:43;;;;;;;8.95;1.80;;;;;;;14.42;38.00;99012.56;1815596;79;21588;-75
2021/05/07 07:45:12;;;;;;;9.23;1.72;;;;;;;14.46;37.85;99010.67;1815790;79;21138;-82
2021/05/07 07:47:40;;;;;;;6.10;1.52;;;;;;;14.47;36.94;99013.66;1815985;79;21545;-73
2021/05/07 07:50:09;;;;;;;5.92;1.60;;;;;;;14.45;37.75;99013.20;1815842;79;21362;-73
2021/05/07 07:52:38;;;;;;;5.58;2.62;;;;;;;14.43;37.59;99014.17;1815632;78;21134;-76
2021/05/07 07:55:08;;;;;;;13.95;3.92;;;;;;;14.42;37.24;99018.66;1815109;79;21047;-74
2021/05/07 07:57:35;;;;;;;7.40;3.67;;;;;;;14.42;37.02;99007.62;1813023;78;20928;-74
2021/05/07 08:00:05;;;;;;;18.73;7.95;;;;;;;14.47;37.44;99008.13;1815794;79;21050;-78
2021/05/07 08:02:41;;;;;;;14.80;4.58;;;;;;;14.56;37.58;98998.88;1815640;79;21189;-77
2021/05/07 08:05:11;;;;;;;12.28;2.98;;;;;;;14.68;37.69;99007.89;1815492;79;21110;-72
2021/05/07 08:07:38;;;;;;;9.50;2.58;;;;;;;14.81;37.89;98995.59;1815393;79;21128;-73
2021/05/07 08:10:08;;;;;;;8.20;1.55;;;;;;;14.93;37.54;99005.75;1815375;79;21162;-74
2021/05/07 08:12:36;;;;;;;7.17;1.60;;;;;;;15.00;37.05;98999.59;1815325;79;21597;-85
2021/05/07 08:15:06;;;;;;;6.33;2.42;;;;;;;14.99;36.72;98990.50;1786717;79;21199;-79
2021/05/07 08:17:34;;;;;;;4.42;1.72;;;;;;;14.98;36.30;98986.13;1815207;78;21171;-70
2021/05/07 08:20:05;;;;;;;3.55;1.75;;;;;;;14.97;35.49;98985.91;1824163;77;21307;-74
2021/05/07 08:22:33;;;;;;;5.72;2.10;;;;;;;14.96;35.83;98988.45;1837092;77;21064;-79
2021/05/07 08:25:01;;;;;;;8.13;1.50;;;;;;;14.97;36.18;98980.97;1836325;77;21441;-84
2021/05/07 08:27:29;;;;;;;8.13;2.00;;;;;;;15.01;35.89;98974.94;1821426;78;22410;-79
2021/05/07 08:29:57;;;;;;;3.95;1.32;;;;;;;15.05;36.57;98969.69;1821392;77;21563;-78
2021/05/07 08:32:25;;;;;;;9.65;1.90;;;;;;;15.12;36.82;98978.15;1821333;78;20871;-85
2021/05/07 08:34:53;;;;;;;8.15;1.87;;;;;;;15.17;35.26;98968.78;1822127;78;20927;-84
2021/05/07 08:37:21;;;;;;;3.22;1.30;;;;;;;15.23;35.60;98972.87;1821496;77;20933;-85
2021/05/07 08:39:50;;;;;;;6.25;1.20;;;;;;;15.30;35.05;98972.23;1821790;78;21364;-84
2021/05/07 08:42:23;;;;;;;2.15;0.85;;;;;;;15.38;35.16;98951.87;1804621;78;20942;-86
2021/05/07 08:44:51;;;;;;;7.55;1.80;;;;;;;15.47;35.56;98958.80;1821764;78;20906;-86
2021/05/07 08:47:21;;;;;;;9.50;1.47;;;;;;;15.60;35.82;98952.55;1821811;78;21057;-84
2021/05/07 08:49:51;;;;;;;11.83;1.87;;;;;;;15.76;34.82;98938.06;1803619;78;21001;-82
2021/05/07 08:52:19;;;;;;;6.47;1.47;;;;;;;15.88;35.41;98944.03;1839117;77;21344;-85
2021/05/07 08:54:50;;;;;;;5.08;1.02;;;;;;;15.92;34.75;98935.80;1838855;78;20954;-85
2021/05/07 08:57:17;;;;;;;9.30;2.30;;;;;;;15.87;34.42;98932.74;1838544;78;21531;-84
2021/05/07 08:59:47;;;;;;;7.70;1.55;;;;;;;15.88;34.08;98928.01;1838307;78;21623;-84
2021/05/07 09:02:29;;;;;;;6.30;1.50;;;;;;;16.06;35.41;98918.08;1839037;78;20871;-84
2021/05/07 09:04:59;;;;;;;6.62;1.20;;;;;;;16.30;34.25;98917.70;1836476;77;21436;-83
2021/05/07 09:07:31;;;;;;;4.70;1.47;;;;;;;16.58;33.44;98915.20;1818196;77;21148;-84
2021/05/07 09:10:02;;;;;;;7.53;2.08;;;;;;;16.68;33.30;98906.30;1849390;77;21077;-82
2021/05/07 09:15:14;;;;;;;5.72;1.82;;;;;;;16.92;32.88;98889.81;1889964;76;22684;-80
2021/05/07 09:17:42;;;;;;;9.25;1.87;;;;;;;16.96;32.65;98894.83;1785229;79;20962;-77
2021/05/07 09:20:14;;;;;;;7.03;2.45;;;;;;;16.99;30.56;98897.66;1785519;80;21196;-75
2021/05/07 09:22:42;;;;;;;4.10;1.90;;;;;;;16.93;30.91;98884.48;1817455;78;25749;-83
2021/05/07 09:25:16;;;;;;;10.98;1.95;;;;;;;16.80;30.60;98890.23;1759151;79;20990;-80
2021/05/07 09:27:44;;;;;;;15.75;2.33;;;;;;;16.75;31.50;98885.63;1793818;79;21569;-82
2021/05/07 09:30:24;;;;;;;7.40;1.70;;;;;;;16.83;31.27;98880.37;1787380;79;21020;-83
2021/05/07 09:32:53;;;;;;;6.95;1.50;;;;;;;16.91;31.25;98876.54;1799901;79;21410;-86
2021/05/07 09:35:28;;;;;;;7.97;1.75;;;;;;;17.05;30.74;98871.20;1759872;79;21052;-82
2021/05/07 09:38:03;;;;;;;11.50;2.60;;;;;;;17.16;30.80;98851.34;1791708;79;20991;-82
2021/05/07 09:40:31;;;;;;;11.80;3.05;;;;;;;17.32;30.18;98847.58;1784472;80;20935;-78
2021/05/07 09:43:20;;;;;;;11.22;2.58;;;;;;;17.43;30.78;98851.26;1783934;80;21069;-73
2021/05/07 09:45:48;;;;;;;3.47;1.40;;;;;;;17.49;31.08;98854.70;1779773;79;21200;-73
2021/05/07 09:48:25;;;;;;;9.45;1.22;;;;;;;17.55;30.84;98850.20;1758770;79;20998;-78
2021/05/07 09:53:47;;;;;;;6.97;1.20;;;;;;;17.43;31.10;98866.52;1866411;75;22767;-76
2021/05/07 09:56:21;;;;;;;6.60;1.60;;;;;;;17.27;30.60;98863.97;1756607;81;20983;-80
2021/05/07 09:58:51;;;;;;;7.37;1.82;;;;;;;17.13;30.97;98860.42;1778345;80;21485;-71
2021/05/07 10:01:18;;;;;;;4.42;1.40;;;;;;;17.03;31.46;98858.88;1772397;80;21176;-71
2021/05/07 10:03:47;;;;;;;7.30;1.32;;;;;;;16.96;31.12;98860.17;1775412;80;21006;-72
2021/05/07 10:06:17;;;;;;;5.12;1.50;;;;;;;16.84;31.26;98850.09;1770520;80;21075;-71
2021/05/07 10:08:45;;;;;;;3.27;1.35;;;;;;;16.74;31.85;98843.84;1775830;80;21058;-70
2021/05/07 10:11:14;;;;;;;4.20;1.05;;;;;;;16.71;32.06;98841.23;1774907;79;21373;-71
2021/05/07 10:13:44;;;;;;;8.70;1.95;;;;;;;16.70;32.12;98838.83;1771900;80;21037;-72
2021/05/07 10:16:12;;;;;;;5.00;1.40;;;;;;;16.71;32.54;98850.93;1756378;81;20991;-72
2021/05/07 10:18:42;;;;;;;7.00;1.50;;;;;;;16.73;32.13;98831.16;1737388;82;20943;-72
2021/05/07 10:21:14;;;;;;;7.15;1.65;;;;;;;16.75;32.70;98830.97;1688382;82;21131;-73
2021/05/07 10:23:51;;;;;;;8.15;1.52;;;;;;;16.81;33.69;98835.02;1726355;83;21395;-72
2021/05/07 10:26:19;;;;;;;4.90;1.40;;;;;;;16.78;32.76;98826.65;1735968;82;21123;-73
2021/05/07 10:28:49;;;;;;;5.80;1.55;;;;;;;16.75;33.57;98823.27;1740332;80;21612;-74
2021/05/07 10:31:18;;;;;;;6.90;1.17;;;;;;;16.74;33.88;98825.83;1738510;82;21741;-74
2021/05/07 10:34:01;;;;;;;5.90;1.12;;;;;;;16.73;33.51;98822.84;1741471;82;21112;-83
2021/05/07 10:36:42;;;;;;;2.90;1.55;;;;;;;16.67;33.75;98818.20;1737699;82;22911;-77
2021/05/07 10:39:27;;;;;;;3.30;0.90;;;;;;;16.63;34.02;98812.37;1727339;83;21484;-78
2021/05/07 10:41:57;;;;;;;8.75;1.40;;;;;;;16.64;33.97;98807.04;1710549;82;21151;-77
2021/05/07 10:44:27;;;;;;;1.67;1.10;;;;;;;16.66;34.92;98805.52;1749220;80;21132;-74
2021/05/07 10:47:08;;;;;;;4.97;1.00;;;;;;;16.68;35.49;98810.11;1753517;81;21116;-75
2021/05/07 10:49:42;;;;;;;14.47;1.02;;;;;;;16.69;35.98;98807.55;1721504;82;21212;-76
2021/05/07 10:52:10;;;;;;;2.30;1.02;;;;;;;16.71;36.32;98808.56;1734435;80;21053;-77
2021/05/07 10:54:47;;;;;;;3.80;1.32;;;;;;;16.77;36.38;98796.75;1750653;80;20961;-77
2021/05/07 10:57:25;;;;;;;2.22;1.45;;;;;;;16.85;36.37;98807.34;1744926;80;21605;-73
2021/05/07 11:00:06;;;;;;;8.28;1.60;;;;;;;16.90;36.49;98791.77;1725996;83;21670;-78
2021/05/07 11:02:54;;;;;;;5.00;1.20;;;;;;;17.00;36.86;98788.34;1734792;80;21365;-75
2021/05/07 11:05:49;;;;;;;5.55;1.05;;;;;;;17.16;37.18;98772.30;1743061;81;20969;-74
2021/05/07 11:08:19;;;;;;;5.05;1.37;;;;;;;17.34;36.63;98759.20;1728667;81;21500;-75
2021/05/07 11:10:49;;;;;;;3.50;1.42;;;;;;;17.49;36.78;98748.47;1756191;81;20933;-76
2021/05/07 11:13:17;;;;;;;9.80;1.47;;;;;;;17.74;36.79;98740.42;1756112;81;20992;-78
2021/05/07 11:15:55;;;;;;;11.40;1.80;;;;;;;17.99;36.17;98723.95;1757076;81;21003;-80
2021/05/07 11:18:29;;;;;;;16.20;1.80;;;;;;;18.19;35.88;98732.23;1750553;80;21028;-80
2021/05/07 11:20:58;;;;;;;2.83;1.10;;;;;;;18.30;36.40;98726.16;1737501;80;20962;-78
2021/05/07 11:23:29;;;;;;;7.33;1.98;;;;;;;18.42;36.16;98717.52;1727980;81;21645;-76
2021/05/07 11:26:01;;;;;;;5.45;1.55;;;;;;;18.45;36.37;98713.95;1726394;83;21006;-78
2021/05/07 11:28:28;;;;;;;5.47;1.40;;;;;;;18.53;37.06;98727.86;1726354;83;21386;-81
2021/05/07 11:33:35;;;;;;;7.42;1.67;;;;;;;18.62;36.89;98690.81;1869796;75;22644;-79
2021/05/07 11:36:08;;;;;;;12.43;1.67;;;;;;;18.61;36.61;98701.73;1823200;78;21043;-73
2021/05/07 11:38:38;;;;;;;9.00;1.90;;;;;;;18.57;37.00;98689.77;1826793;78;21194;-75
2021/05/07 11:41:25;;;;;;;4.67;1.30;;;;;;;18.42;37.24;98687.53;1808628;79;21146;-75
2021/05/07 11:43:54;;;;;;;6.83;1.60;;;;;;;18.30;37.73;98677.55;1825162;78;20875;-74
2021/05/07 11:46:22;;;;;;;8.73;2.00;;;;;;;18.33;38.14;98675.97;1733642;81;21020;-79
2021/05/07 11:48:51;;;;;;;8.93;1.77;;;;;;;18.38;38.26;98662.51;1754978;81;20934;-78
2021/05/07 11:51:22;;;;;;;10.75;1.70;;;;;;;18.46;38.42;98657.78;1772524;79;21192;-81